sensor_id;sensor_type;location;lat;lon;timestamp;P1;durP1;ratioP1;P2;durP2;ratioP2
65835;SDS011;52595;51.608;7.216;2022-10-16T00:00:56;9.77;;;5.53;;
65835;SDS011;52595;51.608;7.216;2022-10-16T00:03:21;10.20;;;6.40;;
65835;SDS011;52595;51.608;7.216;2022-10-16T00:05:47;10.05;;;5.43;;
65835;SDS011;52595;51.608;7.216;2022-10-16T00:08:13;11.98;;;5.68;;
65835;SDS011;52595;51.608;7.216;2022-10-16T00:10:39;10.60;;;5.38;;
65835;SDS011;52595;51.608;7.216;2022-10-16T00:13:05;11.98;;;5.40;;
65835;SDS011;52595;51.608;7.216;2022-10-16T00:15:35;9.70;;;5.40;;
65835;SDS011;52595;51.608;7.216;2022-10-16T00:18:02;9.45;;;4.93;;
65835;SDS011;52595;51.608;7.216;2022-10-16T00:20:29;9.93;;;5.05;;
65835;SDS011;52595;51.608;7.216;2022-10-16T00:22:56;13.73;;;5.50;;
65835;SDS011;52595;51.608;7.216;2022-10-16T00:25:22;8.13;;;4.60;;
65835;SDS011;52595;51.608;7.216;2022-10-16T00:27:47;9.57;;;4.88;;
65835;SDS011;52595;51.608;7.216;2022-10-16T00:30:13;7.85;;;4.88;;
65835;SDS011;52595;51.608;7.216;2022-10-16T00:32:38;9.48;;;4.93;;
65835;SDS011;52595;51.608;7.216;2022-10-16T00:35:04;7.53;;;4.85;;
65835;SDS011;52595;51.608;7.216;2022-10-16T00:37:29;9.65;;;4.85;;
65835;SDS011;52595;51.608;7.216;2022-10-16T00:39:55;9.68;;;5.00;;
65835;SDS011;52595;51.608;7.216;2022-10-16T00:42:20;12.50;;;5.10;;
65835;SDS011;52595;51.608;7.216;2022-10-16T00:47:19;18.42;;;5.22;;
65835;SDS011;52595;51.608;7.216;2022-10-16T00:49:47;9.33;;;4.63;;
65835;SDS011;52595;51.608;7.216;2022-10-16T00:52:15;8.98;;;4.60;;
65835;SDS011;52595;51.608;7.216;2022-10-16T00:54:41;10.55;;;4.82;;
65835;SDS011;52595;51.608;7.216;2022-10-16T00:57:07;9.93;;;4.85;;
65835;SDS011;52595;51.608;7.216;2022-10-16T00:59:34;9.30;;;4.70;;
65835;SDS011;52595;51.608;7.216;2022-10-16T01:02:02;12.77;;;4.50;;
65835;SDS011;52595;51.608;7.216;2022-10-16T01:04:31;8.68;;;4.68;;
65835;SDS011;52595;51.608;7.216;2022-10-16T01:13:06;8.88;;;4.47;;
65835;SDS011;52595;51.608;7.216;2022-10-16T01:15:37;8.15;;;4.35;;
65835;SDS011;52595;51.608;7.216;2022-10-16T01:18:21;8.85;;;4.20;;
65835;SDS011;52595;51.608;7.216;2022-10-16T01:20:59;6.82;;;3.80;;
65835;SDS011;52595;51.608;7.216;2022-10-16T01:23:44;7.93;;;3.95;;
65835;SDS011;52595;51.608;7.216;2022-10-16T01:26:43;7.03;;;3.90;;
65835;SDS011;52595;51.608;7.216;2022-10-16T01:34:58;6.13;;;3.70;;
65835;SDS011;52595;51.608;7.216;2022-10-16T01:37:40;7.18;;;3.30;;
65835;SDS011;52595;51.608;7.216;2022-10-16T01:40:12;5.40;;;3.35;;
65835;SDS011;52595;51.608;7.216;2022-10-16T01:42:48;7.57;;;3.80;;
65835;SDS011;52595;51.608;7.216;2022-10-16T01:45:18;5.47;;;3.33;;
65835;SDS011;52595;51.608;7.216;2022-10-16T01:47:44;7.00;;;3.20;;
65835;SDS011;52595;51.608;7.216;2022-10-16T01:50:12;7.53;;;3.20;;
65835;SDS011;52595;51.608;7.216;2022-10-16T01:52:41;6.95;;;4.55;;
65835;SDS011;52595;51.608;7.216;2022-10-16T01:55:10;7.65;;;3.47;;
65835;SDS011;52595;51.608;7.216;2022-10-16T01:57:38;6.30;;;3.28;;
65835;SDS011;52595;51.608;7.216;2022-10-16T02:00:09;7.43;;;3.35;;
65835;SDS011;52595;51.608;7.216;2022-10-16T02:02:37;6.38;;;2.92;;
65835;SDS011;52595;51.608;7.216;2022-10-16T02:05:18;6.35;;;3.20;;
65835;SDS011;52595;51.608;7.216;2022-10-16T02:07:53;5.00;;;3.10;;
65835;SDS011;52595;51.608;7.216;2022-10-16T02:10:19;5.63;;;3.28;;
65835;SDS011;52595;51.608;7.216;2022-10-16T02:12:45;7.32;;;2.92;;
65835;SDS011;52595;51.608;7.216;2022-10-16T02:15:16;5.25;;;3.17;;
65835;SDS011;52595;51.608;7.216;2022-10-16T02:17:41;4.50;;;3.10;;
65835;SDS011;52595;51.608;7.216;2022-10-16T02:20:06;6.40;;;2.90;;
65835;SDS011;52595;51.608;7.216;2022-10-16T02:30:33;6.05;;;2.85;;
65835;SDS011;52595;51.608;7.216;2022-10-16T02:33:02;6.10;;;2.70;;
65835;SDS011;52595;51.608;7.216;2022-10-16T02:35:30;5.68;;;2.90;;
65835;SDS011;52595;51.608;7.216;2022-10-16T02:37:57;4.78;;;2.88;;
65835;SDS011;52595;51.608;7.216;2022-10-16T02:40:23;4.55;;;2.50;;
65835;SDS011;52595;51.608;7.216;2022-10-16T02:42:50;5.80;;;2.78;;
65835;SDS011;52595;51.608;7.216;2022-10-16T02:45:17;4.50;;;2.55;;
65835;SDS011;52595;51.608;7.216;2022-10-16T02:47:42;4.88;;;2.45;;
65835;SDS011;52595;51.608;7.216;2022-10-16T02:50:08;4.97;;;2.80;;
65835;SDS011;52595;51.608;7.216;2022-10-16T02:52:33;5.07;;;2.50;;
65835;SDS011;52595;51.608;7.216;2022-10-16T02:54:59;4.55;;;2.50;;
65835;SDS011;52595;51.608;7.216;2022-10-16T02:57:24;4.72;;;2.50;;
65835;SDS011;52595;51.608;7.216;2022-10-16T02:59:50;5.55;;;2.40;;
65835;SDS011;52595;51.608;7.216;2022-10-16T03:02:15;3.95;;;2.33;;
65835;SDS011;52595;51.608;7.216;2022-10-16T03:04:41;5.03;;;2.83;;
65835;SDS011;52595;51.608;7.216;2022-10-16T03:07:06;7.68;;;2.50;;
65835;SDS011;52595;51.608;7.216;2022-10-16T03:09:32;3.75;;;2.35;;
65835;SDS011;52595;51.608;7.216;2022-10-16T03:11:58;4.00;;;2.20;;
65835;SDS011;52595;51.608;7.216;2022-10-16T03:14:23;4.68;;;2.20;;
65835;SDS011;52595;51.608;7.216;2022-10-16T03:16:49;5.35;;;2.15;;
65835;SDS011;52595;51.608;7.216;2022-10-16T03:19:16;4.30;;;2.00;;
65835;SDS011;52595;51.608;7.216;2022-10-16T03:21:42;3.80;;;2.42;;
65835;SDS011;52595;51.608;7.216;2022-10-16T03:24:08;5.72;;;2.78;;
65835;SDS011;52595;51.608;7.216;2022-10-16T03:26:33;3.65;;;2.20;;
65835;SDS011;52595;51.608;7.216;2022-10-16T03:28:58;4.90;;;2.58;;
65835;SDS011;52595;51.608;7.216;2022-10-16T03:31:24;3.55;;;2.25;;
65835;SDS011;52595;51.608;7.216;2022-10-16T03:33:49;6.28;;;2.30;;
65835;SDS011;52595;51.608;7.216;2022-10-16T03:36:15;3.50;;;2.50;;
65835;SDS011;52595;51.608;7.216;2022-10-16T03:38:40;3.65;;;2.20;;
65835;SDS011;52595;51.608;7.216;2022-10-16T03:41:06;3.92;;;2.28;;
65835;SDS011;52595;51.608;7.216;2022-10-16T03:43:32;4.93;;;2.30;;
65835;SDS011;52595;51.608;7.216;2022-10-16T03:45:58;4.18;;;2.10;;
65835;SDS011;52595;51.608;7.216;2022-10-16T03:48:23;3.72;;;1.95;;
65835;SDS011;52595;51.608;7.216;2022-10-16T03:50:49;2.65;;;2.03;;
65835;SDS011;52595;51.608;7.216;2022-10-16T03:53:15;3.33;;;2.20;;
65835;SDS011;52595;51.608;7.216;2022-10-16T03:55:41;3.03;;;1.92;;
65835;SDS011;52595;51.608;7.216;2022-10-16T03:58:07;2.47;;;1.80;;
65835;SDS011;52595;51.608;7.216;2022-10-16T04:00:32;4.50;;;2.30;;
65835;SDS011;52595;51.608;7.216;2022-10-16T04:02:58;4.13;;;2.00;;
65835;SDS011;52595;51.608;7.216;2022-10-16T04:05:23;3.45;;;2.00;;
65835;SDS011;52595;51.608;7.216;2022-10-16T04:07:49;2.45;;;1.90;;
65835;SDS011;52595;51.608;7.216;2022-10-16T04:10:14;1.92;;;1.70;;
65835;SDS011;52595;51.608;7.216;2022-10-16T04:12:39;2.90;;;1.98;;
65835;SDS011;52595;51.608;7.216;2022-10-16T04:15:05;3.63;;;1.80;;
65835;SDS011;52595;51.608;7.216;2022-10-16T04:17:30;3.10;;;1.75;;
65835;SDS011;52595;51.608;7.216;2022-10-16T04:19:56;5.60;;;1.98;;
65835;SDS011;52595;51.608;7.216;2022-10-16T04:22:21;3.25;;;1.80;;
65835;SDS011;52595;51.608;7.216;2022-10-16T04:24:46;6.63;;;1.80;;
65835;SDS011;52595;51.608;7.216;2022-10-16T04:27:12;3.88;;;2.00;;
65835;SDS011;52595;51.608;7.216;2022-10-16T04:29:37;4.05;;;1.95;;
65835;SDS011;52595;51.608;7.216;2022-10-16T04:32:03;3.30;;;2.00;;
65835;SDS011;52595;51.608;7.216;2022-10-16T04:34:28;3.00;;;2.00;;
65835;SDS011;52595;51.608;7.216;2022-10-16T04:36:53;3.15;;;1.77;;
65835;SDS011;52595;51.608;7.216;2022-10-16T04:39:19;3.03;;;1.90;;
65835;SDS011;52595;51.608;7.216;2022-10-16T04:41:44;3.60;;;1.77;;
65835;SDS011;52595;51.608;7.216;2022-10-16T04:44:09;5.75;;;1.98;;
65835;SDS011;52595;51.608;7.216;2022-10-16T04:46:35;4.03;;;1.80;;
65835;SDS011;52595;51.608;7.216;2022-10-16T04:49:00;7.63;;;1.83;;
65835;SDS011;52595;51.608;7.216;2022-10-16T04:51:26;2.90;;;1.90;;
65835;SDS011;52595;51.608;7.216;2022-10-16T04:53:52;3.97;;;2.10;;
65835;SDS011;52595;51.608;7.216;2022-10-16T04:56:18;3.05;;;1.98;;
65835;SDS011;52595;51.608;7.216;2022-10-16T04:58:43;2.33;;;1.80;;
65835;SDS011;52595;51.608;7.216;2022-10-16T05:01:09;2.47;;;1.80;;
65835;SDS011;52595;51.608;7.216;2022-10-16T05:03:34;4.10;;;2.00;;
65835;SDS011;52595;51.608;7.216;2022-10-16T05:06:00;2.75;;;1.70;;
65835;SDS011;52595;51.608;7.216;2022-10-16T05:08:25;2.05;;;1.70;;
65835;SDS011;52595;51.608;7.216;2022-10-16T05:10:50;3.38;;;1.85;;
65835;SDS011;52595;51.608;7.216;2022-10-16T05:13:16;2.33;;;1.70;;
65835;SDS011;52595;51.608;7.216;2022-10-16T05:15:41;3.10;;;1.77;;
65835;SDS011;52595;51.608;7.216;2022-10-16T05:18:07;2.55;;;1.65;;
65835;SDS011;52595;51.608;7.216;2022-10-16T05:20:33;3.08;;;2.03;;
65835;SDS011;52595;51.608;7.216;2022-10-16T05:22:59;4.07;;;1.88;;
65835;SDS011;52595;51.608;7.216;2022-10-16T05:25:24;3.47;;;1.73;;
65835;SDS011;52595;51.608;7.216;2022-10-16T05:27:50;2.88;;;1.85;;
65835;SDS011;52595;51.608;7.216;2022-10-16T05:30:16;2.22;;;1.70;;
65835;SDS011;52595;51.608;7.216;2022-10-16T05:32:45;5.18;;;1.80;;
65835;SDS011;52595;51.608;7.216;2022-10-16T05:35:11;3.85;;;1.85;;
65835;SDS011;52595;51.608;7.216;2022-10-16T05:37:37;2.78;;;1.80;;
65835;SDS011;52595;51.608;7.216;2022-10-16T05:40:02;3.22;;;1.80;;
65835;SDS011;52595;51.608;7.216;2022-10-16T05:42:29;3.38;;;1.90;;
65835;SDS011;52595;51.608;7.216;2022-10-16T05:44:55;4.00;;;1.90;;
65835;SDS011;52595;51.608;7.216;2022-10-16T05:47:20;5.72;;;1.90;;
65835;SDS011;52595;51.608;7.216;2022-10-16T05:49:46;3.70;;;2.17;;
65835;SDS011;52595;51.608;7.216;2022-10-16T05:52:11;4.72;;;1.92;;
65835;SDS011;52595;51.608;7.216;2022-10-16T05:54:36;3.58;;;1.73;;
65835;SDS011;52595;51.608;7.216;2022-10-16T05:57:02;5.60;;;1.90;;
65835;SDS011;52595;51.608;7.216;2022-10-16T05:59:27;3.58;;;2.35;;
65835;SDS011;52595;51.608;7.216;2022-10-16T06:01:53;3.22;;;1.88;;
65835;SDS011;52595;51.608;7.216;2022-10-16T06:04:18;4.50;;;2.10;;
65835;SDS011;52595;51.608;7.216;2022-10-16T06:06:43;8.30;;;2.10;;
65835;SDS011;52595;51.608;7.216;2022-10-16T06:09:09;2.53;;;1.90;;
65835;SDS011;52595;51.608;7.216;2022-10-16T06:11:34;3.22;;;1.75;;
65835;SDS011;52595;51.608;7.216;2022-10-16T06:14:01;3.97;;;1.90;;
65835;SDS011;52595;51.608;7.216;2022-10-16T06:16:31;3.10;;;2.00;;
65835;SDS011;52595;51.608;7.216;2022-10-16T06:18:58;4.97;;;2.20;;
65835;SDS011;52595;51.608;7.216;2022-10-16T06:21:25;2.55;;;1.80;;
65835;SDS011;52595;51.608;7.216;2022-10-16T06:23:53;4.80;;;2.00;;
65835;SDS011;52595;51.608;7.216;2022-10-16T06:26:20;3.45;;;1.98;;
65835;SDS011;52595;51.608;7.216;2022-10-16T06:28:48;3.13;;;2.05;;
65835;SDS011;52595;51.608;7.216;2022-10-16T06:31:14;2.92;;;1.80;;
65835;SDS011;52595;51.608;7.216;2022-10-16T06:33:40;3.67;;;2.00;;
65835;SDS011;52595;51.608;7.216;2022-10-16T06:36:07;2.95;;;1.90;;
65835;SDS011;52595;51.608;7.216;2022-10-16T06:38:37;5.03;;;2.20;;
65835;SDS011;52595;51.608;7.216;2022-10-16T06:41:03;2.80;;;1.95;;
65835;SDS011;52595;51.608;7.216;2022-10-16T06:43:30;3.67;;;2.10;;
65835;SDS011;52595;51.608;7.216;2022-10-16T06:46:00;3.03;;;2.10;;
65835;SDS011;52595;51.608;7.216;2022-10-16T06:48:27;3.83;;;1.80;;
65835;SDS011;52595;51.608;7.216;2022-10-16T06:53:33;3.22;;;1.90;;
65835;SDS011;52595;51.608;7.216;2022-10-16T06:56:13;4.80;;;1.90;;
65835;SDS011;52595;51.608;7.216;2022-10-16T06:58:44;3.33;;;1.85;;
65835;SDS011;52595;51.608;7.216;2022-10-16T07:01:10;4.50;;;1.98;;
65835;SDS011;52595;51.608;7.216;2022-10-16T07:03:37;4.57;;;2.00;;
65835;SDS011;52595;51.608;7.216;2022-10-16T07:06:03;5.53;;;2.10;;
65835;SDS011;52595;51.608;7.216;2022-10-16T07:08:34;4.03;;;2.35;;
65835;SDS011;52595;51.608;7.216;2022-10-16T07:11:04;4.18;;;2.20;;
65835;SDS011;52595;51.608;7.216;2022-10-16T07:13:38;2.78;;;2.00;;
65835;SDS011;52595;51.608;7.216;2022-10-16T07:16:05;4.05;;;2.00;;
65835;SDS011;52595;51.608;7.216;2022-10-16T07:18:35;8.95;;;2.17;;
65835;SDS011;52595;51.608;7.216;2022-10-16T07:23:30;2.28;;;2.00;;
65835;SDS011;52595;51.608;7.216;2022-10-16T07:25:56;5.18;;;2.05;;
65835;SDS011;52595;51.608;7.216;2022-10-16T07:28:21;3.78;;;2.10;;
65835;SDS011;52595;51.608;7.216;2022-10-16T07:30:47;5.18;;;1.88;;
65835;SDS011;52595;51.608;7.216;2022-10-16T07:33:13;2.90;;;1.80;;
65835;SDS011;52595;51.608;7.216;2022-10-16T07:35:46;2.22;;;1.95;;
65835;SDS011;52595;51.608;7.216;2022-10-16T07:38:19;4.32;;;2.30;;
65835;SDS011;52595;51.608;7.216;2022-10-16T07:40:45;2.30;;;1.90;;
65835;SDS011;52595;51.608;7.216;2022-10-16T07:43:11;3.60;;;1.90;;
65835;SDS011;52595;51.608;7.216;2022-10-16T07:45:36;4.13;;;2.00;;
65835;SDS011;52595;51.608;7.216;2022-10-16T07:48:02;3.28;;;2.05;;
65835;SDS011;52595;51.608;7.216;2022-10-16T07:50:28;5.43;;;1.75;;
65835;SDS011;52595;51.608;7.216;2022-10-16T07:52:53;3.70;;;1.80;;
65835;SDS011;52595;51.608;7.216;2022-10-16T07:55:18;4.53;;;1.85;;
65835;SDS011;52595;51.608;7.216;2022-10-16T07:57:44;2.45;;;1.90;;
65835;SDS011;52595;51.608;7.216;2022-10-16T08:00:09;4.32;;;1.95;;
65835;SDS011;52595;51.608;7.216;2022-10-16T08:02:41;3.45;;;1.70;;
65835;SDS011;52595;51.608;7.216;2022-10-16T08:05:07;4.03;;;1.80;;
65835;SDS011;52595;51.608;7.216;2022-10-16T08:07:33;3.35;;;1.80;;
65835;SDS011;52595;51.608;7.216;2022-10-16T08:09:58;5.47;;;1.85;;
65835;SDS011;52595;51.608;7.216;2022-10-16T08:12:24;3.25;;;1.90;;
65835;SDS011;52595;51.608;7.216;2022-10-16T08:14:50;4.13;;;2.10;;
65835;SDS011;52595;51.608;7.216;2022-10-16T08:17:16;2.45;;;1.70;;
65835;SDS011;52595;51.608;7.216;2022-10-16T08:19:45;2.90;;;1.60;;
65835;SDS011;52595;51.608;7.216;2022-10-16T08:22:11;4.00;;;1.70;;
65835;SDS011;52595;51.608;7.216;2022-10-16T08:24:36;4.35;;;1.92;;
65835;SDS011;52595;51.608;7.216;2022-10-16T08:27:02;1.88;;;1.45;;
65835;SDS011;52595;51.608;7.216;2022-10-16T08:29:28;3.67;;;1.58;;
65835;SDS011;52595;51.608;7.216;2022-10-16T08:31:53;2.72;;;1.67;;
65835;SDS011;52595;51.608;7.216;2022-10-16T08:34:19;3.92;;;1.98;;
65835;SDS011;52595;51.608;7.216;2022-10-16T08:36:44;3.95;;;1.70;;
65835;SDS011;52595;51.608;7.216;2022-10-16T08:39:09;7.07;;;1.73;;
65835;SDS011;52595;51.608;7.216;2022-10-16T08:44:23;1.90;;;1.45;;
65835;SDS011;52595;51.608;7.216;2022-10-16T08:49:27;2.75;;;1.50;;
65835;SDS011;52595;51.608;7.216;2022-10-16T08:51:52;3.00;;;1.42;;
65835;SDS011;52595;51.608;7.216;2022-10-16T08:54:23;7.18;;;1.50;;
65835;SDS011;52595;51.608;7.216;2022-10-16T08:56:55;3.03;;;1.40;;
65835;SDS011;52595;51.608;7.216;2022-10-16T08:59:21;2.70;;;1.60;;
65835;SDS011;52595;51.608;7.216;2022-10-16T09:01:47;6.43;;;1.80;;
65835;SDS011;52595;51.608;7.216;2022-10-16T09:07:14;4.07;;;1.65;;
65835;SDS011;52595;51.608;7.216;2022-10-16T09:12:46;2.67;;;1.50;;
65835;SDS011;52595;51.608;7.216;2022-10-16T09:15:35;5.68;;;1.50;;
65835;SDS011;52595;51.608;7.216;2022-10-16T09:18:12;4.78;;;1.50;;
65835;SDS011;52595;51.608;7.216;2022-10-16T09:21:35;4.95;;;1.60;;
65835;SDS011;52595;51.608;7.216;2022-10-16T09:23:38;3.30;;;1.42;;
65835;SDS011;52595;51.608;7.216;2022-10-16T09:26:04;3.90;;;1.40;;
65835;SDS011;52595;51.608;7.216;2022-10-16T09:28:34;6.20;;;1.80;;
65835;SDS011;52595;51.608;7.216;2022-10-16T09:30:59;2.13;;;1.60;;
65835;SDS011;52595;51.608;7.216;2022-10-16T09:33:28;5.07;;;1.60;;
65835;SDS011;52595;51.608;7.216;2022-10-16T09:35:59;4.43;;;1.63;;
65835;SDS011;52595;51.608;7.216;2022-10-16T09:38:29;4.05;;;1.60;;
65835;SDS011;52595;51.608;7.216;2022-10-16T09:40:57;3.42;;;1.52;;
65835;SDS011;52595;51.608;7.216;2022-10-16T09:43:30;2.95;;;1.40;;
65835;SDS011;52595;51.608;7.216;2022-10-16T09:46:02;5.18;;;1.77;;
65835;SDS011;52595;51.608;7.216;2022-10-16T09:48:37;4.00;;;1.70;;
65835;SDS011;52595;51.608;7.216;2022-10-16T09:51:04;3.78;;;1.75;;
65835;SDS011;52595;51.608;7.216;2022-10-16T09:53:41;5.95;;;1.83;;
65835;SDS011;52595;51.608;7.216;2022-10-16T09:56:20;6.45;;;1.80;;
65835;SDS011;52595;51.608;7.216;2022-10-16T09:58:58;5.20;;;1.83;;
65835;SDS011;52595;51.608;7.216;2022-10-16T10:01:35;3.63;;;1.50;;
65835;SDS011;52595;51.608;7.216;2022-10-16T10:04:03;5.90;;;2.20;;
65835;SDS011;52595;51.608;7.216;2022-10-16T10:06:33;4.25;;;1.73;;
65835;SDS011;52595;51.608;7.216;2022-10-16T10:09:16;3.70;;;1.90;;
65835;SDS011;52595;51.608;7.216;2022-10-16T10:14:53;3.28;;;1.48;;
65835;SDS011;52595;51.608;7.216;2022-10-16T10:19:47;2.88;;;1.40;;
65835;SDS011;52595;51.608;7.216;2022-10-16T10:33:47;5.35;;;1.48;;
65835;SDS011;52595;51.608;7.216;2022-10-16T10:44:46;3.95;;;1.63;;
65835;SDS011;52595;51.608;7.216;2022-10-16T10:47:22;5.28;;;1.50;;
65835;SDS011;52595;51.608;7.216;2022-10-16T10:50:07;4.43;;;1.67;;
65835;SDS011;52595;51.608;7.216;2022-10-16T10:58:43;4.63;;;2.15;;
65835;SDS011;52595;51.608;7.216;2022-10-16T11:06:55;4.63;;;2.10;;
65835;SDS011;52595;51.608;7.216;2022-10-16T11:09:36;3.28;;;1.90;;
65835;SDS011;52595;51.608;7.216;2022-10-16T11:12:14;7.25;;;2.10;;
65835;SDS011;52595;51.608;7.216;2022-10-16T11:18:07;3.75;;;2.13;;
65835;SDS011;52595;51.608;7.216;2022-10-16T11:20:18;4.18;;;2.17;;
65835;SDS011;52595;51.608;7.216;2022-10-16T11:22:48;4.97;;;2.10;;
65835;SDS011;52595;51.608;7.216;2022-10-16T11:30:38;3.33;;;1.45;;
65835;SDS011;52595;51.608;7.216;2022-10-16T11:37:59;2.97;;;1.50;;
65835;SDS011;52595;51.608;7.216;2022-10-16T11:40:28;2.88;;;1.30;;
65835;SDS011;52595;51.608;7.216;2022-10-16T11:43:02;2.72;;;1.40;;
65835;SDS011;52595;51.608;7.216;2022-10-16T11:45:40;3.00;;;1.40;;
65835;SDS011;52595;51.608;7.216;2022-10-16T11:56:52;2.47;;;1.20;;
65835;SDS011;52595;51.608;7.216;2022-10-16T12:05:03;2.67;;;1.30;;
65835;SDS011;52595;51.608;7.216;2022-10-16T12:07:38;2.50;;;1.20;;
65835;SDS011;52595;51.608;7.216;2022-10-16T12:10:19;5.72;;;1.48;;
65835;SDS011;52595;51.608;7.216;2022-10-16T12:12:46;4.22;;;1.30;;
65835;SDS011;52595;51.608;7.216;2022-10-16T12:15:19;4.15;;;1.38;;
65835;SDS011;52595;51.608;7.216;2022-10-16T12:17:44;2.10;;;1.20;;
65835;SDS011;52595;51.608;7.216;2022-10-16T12:22:47;2.35;;;1.13;;
65835;SDS011;52595;51.608;7.216;2022-10-16T12:25:20;3.92;;;1.20;;
65835;SDS011;52595;51.608;7.216;2022-10-16T12:27:53;3.42;;;1.30;;
65835;SDS011;52595;51.608;7.216;2022-10-16T12:30:22;2.85;;;1.30;;
65835;SDS011;52595;51.608;7.216;2022-10-16T12:32:59;3.17;;;1.10;;
65835;SDS011;52595;51.608;7.216;2022-10-16T12:35:32;5.72;;;1.45;;
65835;SDS011;52595;51.608;7.216;2022-10-16T12:38:12;1.67;;;1.17;;
65835;SDS011;52595;51.608;7.216;2022-10-16T12:40:42;3.92;;;1.40;;
65835;SDS011;52595;51.608;7.216;2022-10-16T12:43:52;2.13;;;1.17;;
65835;SDS011;52595;51.608;7.216;2022-10-16T12:48:35;5.10;;;1.40;;
65835;SDS011;52595;51.608;7.216;2022-10-16T12:51:09;2.15;;;1.20;;
65835;SDS011;52595;51.608;7.216;2022-10-16T12:54:02;1.70;;;1.10;;
65835;SDS011;52595;51.608;7.216;2022-10-16T12:59:13;3.40;;;1.23;;
65835;SDS011;52595;51.608;7.216;2022-10-16T13:05:15;1.58;;;1.15;;
65835;SDS011;52595;51.608;7.216;2022-10-16T13:08:34;2.55;;;1.70;;
65835;SDS011;52595;51.608;7.216;2022-10-16T13:14:46;3.97;;;1.60;;
65835;SDS011;52595;51.608;7.216;2022-10-16T13:27:53;2.60;;;1.30;;
65835;SDS011;52595;51.608;7.216;2022-10-16T13:30:26;3.83;;;1.50;;
65835;SDS011;52595;51.608;7.216;2022-10-16T13:32:56;4.28;;;1.65;;
65835;SDS011;52595;51.608;7.216;2022-10-16T13:35:32;3.00;;;1.58;;
65835;SDS011;52595;51.608;7.216;2022-10-16T13:38:12;3.35;;;1.42;;
65835;SDS011;52595;51.608;7.216;2022-10-16T13:43:43;5.05;;;2.00;;
65835;SDS011;52595;51.608;7.216;2022-10-16T13:46:15;4.70;;;1.48;;
65835;SDS011;52595;51.608;7.216;2022-10-16T13:48:41;3.78;;;1.60;;
65835;SDS011;52595;51.608;7.216;2022-10-16T13:51:12;4.45;;;1.60;;
65835;SDS011;52595;51.608;7.216;2022-10-16T13:53:42;4.65;;;1.40;;
65835;SDS011;52595;51.608;7.216;2022-10-16T13:56:12;3.70;;;1.50;;
65835;SDS011;52595;51.608;7.216;2022-10-16T13:58:39;3.22;;;1.38;;
65835;SDS011;52595;51.608;7.216;2022-10-16T14:01:27;3.65;;;1.50;;
65835;SDS011;52595;51.608;7.216;2022-10-16T14:04:05;3.83;;;1.50;;
65835;SDS011;52595;51.608;7.216;2022-10-16T14:06:39;2.58;;;1.20;;
65835;SDS011;52595;51.608;7.216;2022-10-16T14:11:55;3.40;;;1.38;;
65835;SDS011;52595;51.608;7.216;2022-10-16T14:14:23;4.47;;;1.50;;
65835;SDS011;52595;51.608;7.216;2022-10-16T14:16:49;2.63;;;1.30;;
65835;SDS011;52595;51.608;7.216;2022-10-16T14:19:20;4.00;;;1.38;;
65835;SDS011;52595;51.608;7.216;2022-10-16T14:21:51;3.85;;;1.50;;
65835;SDS011;52595;51.608;7.216;2022-10-16T14:24:27;2.83;;;1.50;;
65835;SDS011;52595;51.608;7.216;2022-10-16T14:26:59;4.00;;;1.40;;
65835;SDS011;52595;51.608;7.216;2022-10-16T14:29:26;3.35;;;1.30;;
65835;SDS011;52595;51.608;7.216;2022-10-16T14:32:00;2.35;;;1.05;;
65835;SDS011;52595;51.608;7.216;2022-10-16T14:34:37;4.45;;;1.08;;
65835;SDS011;52595;51.608;7.216;2022-10-16T14:37:24;2.90;;;1.00;;
65835;SDS011;52595;51.608;7.216;2022-10-16T14:39:52;5.95;;;1.17;;
65835;SDS011;52595;51.608;7.216;2022-10-16T14:42:20;2.25;;;1.00;;
65835;SDS011;52595;51.608;7.216;2022-10-16T14:44:49;3.28;;;1.00;;
65835;SDS011;52595;51.608;7.216;2022-10-16T14:47:18;2.00;;;1.08;;
65835;SDS011;52595;51.608;7.216;2022-10-16T14:49:51;4.60;;;1.25;;
65835;SDS011;52595;51.608;7.216;2022-10-16T14:52:18;3.45;;;1.02;;
65835;SDS011;52595;51.608;7.216;2022-10-16T14:54:47;3.45;;;1.20;;
65835;SDS011;52595;51.608;7.216;2022-10-16T14:57:17;2.42;;;1.20;;
65835;SDS011;52595;51.608;7.216;2022-10-16T14:59:45;3.60;;;1.08;;
65835;SDS011;52595;51.608;7.216;2022-10-16T15:04:45;1.98;;;1.00;;
65835;SDS011;52595;51.608;7.216;2022-10-16T15:07:10;2.58;;;0.90;;
65835;SDS011;52595;51.608;7.216;2022-10-16T15:09:36;2.72;;;1.05;;
65835;SDS011;52595;51.608;7.216;2022-10-16T15:12:01;1.90;;;0.90;;
65835;SDS011;52595;51.608;7.216;2022-10-16T15:14:27;3.03;;;1.10;;
65835;SDS011;52595;51.608;7.216;2022-10-16T15:16:52;1.48;;;0.90;;
65835;SDS011;52595;51.608;7.216;2022-10-16T15:19:18;2.15;;;1.00;;
65835;SDS011;52595;51.608;7.216;2022-10-16T15:21:43;2.83;;;1.10;;
65835;SDS011;52595;51.608;7.216;2022-10-16T15:24:09;2.25;;;1.05;;
65835;SDS011;52595;51.608;7.216;2022-10-16T15:26:37;5.18;;;1.15;;
65835;SDS011;52595;51.608;7.216;2022-10-16T15:29:03;6.00;;;1.45;;
65835;SDS011;52595;51.608;7.216;2022-10-16T15:31:28;2.25;;;1.08;;
65835;SDS011;52595;51.608;7.216;2022-10-16T15:33:54;3.70;;;1.20;;
65835;SDS011;52595;51.608;7.216;2022-10-16T15:36:29;2.35;;;1.10;;
65835;SDS011;52595;51.608;7.216;2022-10-16T15:38:58;3.65;;;1.08;;
65835;SDS011;52595;51.608;7.216;2022-10-16T15:41:24;3.17;;;1.10;;
65835;SDS011;52595;51.608;7.216;2022-10-16T15:43:50;2.90;;;1.40;;
65835;SDS011;52595;51.608;7.216;2022-10-16T15:46:20;2.35;;;1.00;;
65835;SDS011;52595;51.608;7.216;2022-10-16T15:48:47;2.63;;;1.10;;
65835;SDS011;52595;51.608;7.216;2022-10-16T15:51:16;2.80;;;1.30;;
65835;SDS011;52595;51.608;7.216;2022-10-16T15:53:42;3.72;;;1.15;;
65835;SDS011;52595;51.608;7.216;2022-10-16T15:56:08;2.03;;;1.30;;
65835;SDS011;52595;51.608;7.216;2022-10-16T15:58:36;2.95;;;1.02;;
65835;SDS011;52595;51.608;7.216;2022-10-16T16:01:01;4.07;;;1.08;;
65835;SDS011;52595;51.608;7.216;2022-10-16T16:03:28;4.65;;;1.10;;
65835;SDS011;52595;51.608;7.216;2022-10-16T16:05:55;2.95;;;1.40;;
65835;SDS011;52595;51.608;7.216;2022-10-16T16:08:21;2.10;;;1.13;;
65835;SDS011;52595;51.608;7.216;2022-10-16T16:11:03;4.18;;;1.70;;
65835;SDS011;52595;51.608;7.216;2022-10-16T16:13:34;4.38;;;2.00;;
65835;SDS011;52595;51.608;7.216;2022-10-16T16:16:04;4.40;;;1.80;;
65835;SDS011;52595;51.608;7.216;2022-10-16T16:18:31;4.60;;;1.77;;
65835;SDS011;52595;51.608;7.216;2022-10-16T16:20:56;7.68;;;2.20;;
65835;SDS011;52595;51.608;7.216;2022-10-16T16:23:22;5.85;;;2.13;;
65835;SDS011;52595;51.608;7.216;2022-10-16T16:26:06;4.57;;;2.13;;
65835;SDS011;52595;51.608;7.216;2022-10-16T16:28:40;6.53;;;2.35;;
65835;SDS011;52595;51.608;7.216;2022-10-16T16:31:06;4.10;;;2.30;;
65835;SDS011;52595;51.608;7.216;2022-10-16T16:33:32;5.60;;;2.42;;
65835;SDS011;52595;51.608;7.216;2022-10-16T16:35:58;4.80;;;2.15;;
65835;SDS011;52595;51.608;7.216;2022-10-16T16:38:24;4.38;;;2.50;;
65835;SDS011;52595;51.608;7.216;2022-10-16T16:40:50;6.30;;;2.60;;
65835;SDS011;52595;51.608;7.216;2022-10-16T16:43:17;6.65;;;3.08;;
65835;SDS011;52595;51.608;7.216;2022-10-16T16:45:42;4.93;;;3.00;;
65835;SDS011;52595;51.608;7.216;2022-10-16T16:48:08;7.53;;;3.53;;
65835;SDS011;52595;51.608;7.216;2022-10-16T16:50:36;6.82;;;3.33;;
65835;SDS011;52595;51.608;7.216;2022-10-16T16:53:02;5.55;;;3.13;;
65835;SDS011;52595;51.608;7.216;2022-10-16T16:55:28;5.88;;;3.20;;
65835;SDS011;52595;51.608;7.216;2022-10-16T16:57:53;6.28;;;3.30;;
65835;SDS011;52595;51.608;7.216;2022-10-16T17:00:19;9.18;;;3.58;;
65835;SDS011;52595;51.608;7.216;2022-10-16T17:02:47;5.32;;;3.00;;
65835;SDS011;52595;51.608;7.216;2022-10-16T17:05:13;7.55;;;3.08;;
65835;SDS011;52595;51.608;7.216;2022-10-16T17:07:39;4.43;;;2.95;;
65835;SDS011;52595;51.608;7.216;2022-10-16T17:10:06;6.32;;;3.40;;
65835;SDS011;52595;51.608;7.216;2022-10-16T17:12:32;6.57;;;3.55;;
65835;SDS011;52595;51.608;7.216;2022-10-16T17:14:57;7.32;;;3.20;;